Time;durP1;ratioP1;P1;durP2;ratioP2;P2;SDS_P1;SDS_P2;PMS_P1;PMS_P2;Temp;Humidity;BMP_temperature;BMP_pressure;BME280_temperature;BME280_humidity;BME280_pressure;Samples;Min_cycle;Max_cycle;Signal;HPM_P1;HPM_P2
2024/04/06 00:01:48;;;;;;;10.05;7.28;;;24.30;99.90;;;;;;5073470;28;20037;-44
2024/04/06 00:04:14;;;;;;;11.52;6.93;;;24.20;99.90;;;;;;5072655;28;20040;-44
2024/04/06 00:06:40;;;;;;;11.35;7.88;;;24.20;99.90;;;;;;5073080;28;20088;-44
2024/04/06 00:09:06;;;;;;;11.13;6.93;;;24.30;99.90;;;;;;5072752;28;20390;-43
2024/04/06 00:11:32;;;;;;;10.20;7.27;;;24.20;99.90;;;;;;5071462;28;20558;-45
2024/04/06 00:13:58;;;;;;;11.43;7.45;;;24.20;99.90;;;;;;5072730;28;20024;-44
2024/04/06 00:16:24;;;;;;;11.85;7.50;;;24.20;99.90;;;;;;5072607;28;20460;-44
2024/04/06 00:18:50;;;;;;;11.52;7.70;;;24.20;99.90;;;;;;5072648;28;20082;-44
2024/04/06 00:21:15;;;;;;;11.93;7.30;;;24.20;99.90;;;;;;5072454;28;20033;-43
2024/04/06 00:23:41;;;;;;;12.68;6.95;;;24.20;99.90;;;;;;5072745;28;20168;-44
2024/04/06 00:26:07;;;;;;;10.45;7.45;;;24.20;99.90;;;;;;5072272;28;20072;-44
2024/04/06 00:28:36;;;;;;;13.82;7.15;;;24.20;99.90;;;;;;5072485;28;20736;-44
2024/04/06 00:31:02;;;;;;;9.10;6.80;;;24.20;99.90;;;;;;5072595;28;20033;-44
2024/04/06 00:33:27;;;;;;;10.23;6.95;;;24.20;99.90;;;;;;5072519;28;20028;-44
2024/04/06 00:35:53;;;;;;;11.65;7.80;;;24.20;99.90;;;;;;5072311;28;20098;-44
2024/04/06 00:38:19;;;;;;;9.25;6.47;;;24.20;99.90;;;;;;5072402;28;20032;-44
2024/04/06 00:40:45;;;;;;;11.20;6.97;;;24.20;99.90;;;;;;5072488;28;20050;-43
2024/04/06 00:43:11;;;;;;;9.70;6.82;;;24.10;99.90;;;;;;5073640;28;20025;-44
2024/04/06 00:45:37;;;;;;;10.15;7.13;;;24.20;99.90;;;;;;5073909;28;20043;-45
2024/04/06 00:48:03;;;;;;;10.52;6.88;;;24.10;99.90;;;;;;5088900;28;20027;-45
2024/04/06 00:50:30;;;;;;;10.18;7.00;;;24.10;99.90;;;;;;5073463;28;20021;-44
2024/04/06 00:52:55;;;;;;;12.85;7.43;;;24.10;99.90;;;;;;5085043;28;20016;-42
2024/04/06 00:55:22;;;;;;;12.52;6.65;;;24.10;99.90;;;;;;5073797;28;20078;-43
2024/04/06 00:57:48;;;;;;;11.32;7.72;;;24.10;99.90;;;;;;5072916;28;20033;-43
2024/04/06 01:02:53;;;;;;;11.27;7.57;;;24.10;99.90;;;;;;5030754;28;20111;-50
2024/04/06 01:05:19;;;;;;;11.30;7.38;;;24.10;99.90;;;;;;5031539;28;20565;-50
2024/04/06 01:07:45;;;;;;;8.73;6.57;;;24.10;99.90;;;;;;5031788;28;20101;-52
2024/04/06 01:10:12;;;;;;;8.95;6.10;;;24.10;99.90;;;;;;5032246;28;20031;-50
2024/04/06 01:12:38;;;;;;;10.18;6.88;;;24.00;99.90;;;;;;5032055;28;20075;-49
2024/04/06 01:15:04;;;;;;;9.38;6.55;;;24.00;99.90;;;;;;5031806;28;20382;-48
2024/04/06 01:17:30;;;;;;;10.35;7.03;;;24.00;99.90;;;;;;5031802;28;20072;-48
2024/04/06 01:19:56;;;;;;;9.25;6.10;;;24.00;99.90;;;;;;5031854;28;20029;-48
2024/04/06 01:22:22;;;;;;;9.70;6.80;;;24.00;99.90;;;;;;5031803;28;20022;-48
2024/04/06 01:24:48;;;;;;;9.80;6.15;;;24.00;99.90;;;;;;5031733;28;20032;-48
2024/04/06 01:27:14;;;;;;;10.82;6.22;;;24.00;99.90;;;;;;5032099;28;20384;-48
2024/04/06 01:29:39;;;;;;;8.52;6.25;;;24.00;99.90;;;;;;5031762;28;20049;-48
2024/04/06 01:32:05;;;;;;;11.45;6.18;;;24.00;99.90;;;;;;5031793;28;20104;-49
2024/04/06 01:34:31;;;;;;;10.30;6.63;;;24.00;99.90;;;;;;5031666;28;20032;-48
2024/04/06 01:36:57;;;;;;;8.75;6.53;;;24.00;99.90;;;;;;5031694;28;20060;-49
2024/04/06 01:39:22;;;;;;;9.82;6.50;;;24.00;99.90;;;;;;5031603;28;20030;-49
2024/04/06 01:41:49;;;;;;;9.18;6.13;;;24.00;99.90;;;;;;5031567;28;20029;-48
2024/04/06 01:44:15;;;;;;;9.80;6.15;;;24.00;99.90;;;;;;5031749;28;20071;-48
2024/04/06 01:46:41;;;;;;;9.50;5.82;;;24.00;99.90;;;;;;5031455;28;20112;-49
2024/04/06 01:49:07;;;;;;;8.38;5.72;;;24.00;99.90;;;;;;5031540;28;20040;-49
2024/04/06 01:51:33;;;;;;;8.07;6.05;;;24.00;99.90;;;;;;5031545;28;20030;-49
2024/04/06 01:53:59;;;;;;;7.65;5.93;;;23.90;99.90;;;;;;5031456;28;20029;-48
2024/04/06 01:56:28;;;;;;;11.00;6.22;;;24.00;99.90;;;;;;5031461;28;20028;-48
2024/04/06 01:58:54;;;;;;;8.75;6.13;;;23.90;99.90;;;;;;5031488;28;20172;-48
2024/04/06 02:01:20;;;;;;;7.50;5.85;;;23.90;99.90;;;;;;5044127;22;20081;-44
2024/04/06 02:03:46;;;;;;;8.32;5.35;;;23.90;99.90;;;;;;5031858;28;20030;-44
2024/04/06 02:06:12;;;;;;;7.47;5.20;;;23.90;99.90;;;;;;5030210;28;20051;-44
2024/04/06 02:08:38;;;;;;;8.98;5.95;;;23.90;99.90;;;;;;5031681;28;20017;-43
2024/04/06 02:11:04;;;;;;;7.68;4.88;;;23.90;99.90;;;;;;5031544;28;20030;-43
2024/04/06 02:13:30;;;;;;;9.18;5.85;;;23.90;99.90;;;;;;5033146;28;20030;-43
2024/04/06 02:15:56;;;;;;;7.15;4.93;;;23.90;99.90;;;;;;5035093;28;20083;-45
2024/04/06 02:18:23;;;;;;;8.60;5.47;;;23.90;99.90;;;;;;5035040;28;20075;-44
2024/04/06 02:20:49;;;;;;;6.97;5.15;;;23.90;99.90;;;;;;5034052;28;20120;-44
2024/04/06 02:23:15;;;;;;;7.22;5.25;;;23.90;99.90;;;;;;5034854;28;20028;-44
2024/04/06 02:25:41;;;;;;;7.32;5.10;;;23.80;99.90;;;;;;5033666;28;20033;-43
2024/04/06 02:28:07;;;;;;;7.32;5.38;;;23.80;99.90;;;;;;5034813;28;20014;-44
2024/04/06 02:30:33;;;;;;;8.18;5.13;;;23.80;99.90;;;;;;5034841;28;20432;-44
2024/04/06 02:32:58;;;;;;;9.40;5.38;;;23.90;99.90;;;;;;5034853;28;20054;-44
2024/04/06 02:35:24;;;;;;;7.57;5.22;;;23.80;99.90;;;;;;5034606;28;20600;-44
2024/04/06 02:37:50;;;;;;;7.85;4.82;;;23.80;99.90;;;;;;5034845;28;20033;-43
2024/04/06 02:40:17;;;;;;;8.05;5.07;;;23.80;99.90;;;;;;5033275;28;20030;-44
2024/04/06 02:42:43;;;;;;;7.87;5.40;;;23.80;99.90;;;;;;5034526;28;20026;-44
2024/04/06 02:45:09;;;;;;;7.35;5.05;;;23.80;99.90;;;;;;5034405;28;20496;-44
2024/04/06 02:47:35;;;;;;;6.82;4.47;;;23.80;99.90;;;;;;5034471;28;20034;-43
2024/04/06 02:50:01;;;;;;;8.93;4.97;;;23.80;99.90;;;;;;5034372;28;20021;-43
2024/04/06 02:52:27;;;;;;;5.60;4.30;;;23.80;99.90;;;;;;5034455;28;20025;-43
2024/04/06 02:54:53;;;;;;;6.30;4.55;;;23.80;99.90;;;;;;5034373;28;20048;-44
2024/04/06 02:57:18;;;;;;;6.50;4.60;;;23.80;99.90;;;;;;5033186;28;20025;-44
2024/04/06 02:59:45;;;;;;;7.50;4.80;;;23.80;99.90;;;;;;5034171;28;20028;-43
2024/04/06 03:02:11;;;;;;;5.77;4.00;;;23.80;99.90;;;;;;5046893;22;20056;-53
2024/04/06 03:04:42;;;;;;;6.38;4.82;;;23.80;99.90;;;;;;5034162;28;20038;-53
2024/04/06 03:07:09;;;;;;;7.00;5.35;;;23.80;99.90;;;;;;5032762;28;20037;-54
2024/04/06 03:09:35;;;;;;;6.30;3.80;;;23.80;99.90;;;;;;5034032;28;20026;-56
2024/04/06 03:12:04;;;;;;;7.40;4.70;;;23.80;99.90;;;;;;5033976;28;20054;-53
2024/04/06 03:14:31;;;;;;;7.70;5.15;;;23.70;99.90;;;;;;5032700;28;20033;-54
2024/04/06 03:16:57;;;;;;;6.15;4.50;;;23.70;99.90;;;;;;5033962;28;20029;-53
2024/04/06 03:19:23;;;;;;;7.72;4.93;;;23.70;99.90;;;;;;5034024;28;20021;-53
2024/04/06 03:21:48;;;;;;;8.45;4.82;;;23.70;99.90;;;;;;5033915;28;20500;-54
2024/04/06 03:24:14;;;;;;;6.45;4.57;;;23.70;99.90;;;;;;5033806;28;20593;-54
2024/04/06 03:26:43;;;;;;;7.07;4.57;;;23.70;99.90;;;;;;5033602;28;20037;-54
2024/04/06 03:29:09;;;;;;;6.55;4.43;;;23.70;99.90;;;;;;5033811;28;20073;-54
2024/04/06 03:31:34;;;;;;;6.60;4.65;;;23.70;99.90;;;;;;5033744;28;20057;-54
2024/04/06 03:34:00;;;;;;;6.20;4.07;;;23.70;99.90;;;;;;5033712;28;20115;-55
2024/04/06 03:36:26;;;;;;;6.43;4.53;;;23.70;99.90;;;;;;5033490;28;20029;-55
2024/04/06 03:38:52;;;;;;;6.53;4.03;;;23.70;99.90;;;;;;5032518;28;20057;-54
2024/04/06 03:41:17;;;;;;;8.30;4.93;;;23.70;99.90;;;;;;5033507;28;20025;-54
2024/04/06 03:43:44;;;;;;;7.00;4.13;;;23.70;99.90;;;;;;5032398;28;20442;-55
2024/04/06 03:46:10;;;;;;;5.90;3.95;;;23.70;99.90;;;;;;5033463;28;20037;-54
2024/04/06 03:48:35;;;;;;;6.25;4.45;;;23.70;99.90;;;;;;5033280;28;20071;-54
2024/04/06 03:51:01;;;;;;;7.32;4.63;;;23.70;99.90;;;;;;5033317;28;20108;-54
2024/04/06 03:53:35;;;;;;;7.60;4.00;;;23.70;99.90;;;;;;5033297;28;20432;-54
2024/04/06 03:56:02;;;;;;;7.75;4.68;;;23.60;99.90;;;;;;5033402;28;20412;-54
2024/04/06 03:58:28;;;;;;;5.20;4.30;;;23.60;99.90;;;;;;5027400;28;20109;-54
2024/04/06 04:00:55;;;;;;;5.45;4.03;;;23.60;99.90;;;;;;5014453;28;20125;-54
2024/04/06 04:03:21;;;;;;;6.80;4.28;;;23.60;99.90;;;;;;5028168;28;20029;-54
2024/04/06 04:05:48;;;;;;;6.20;4.50;;;23.60;99.90;;;;;;5015555;28;20034;-54
2024/04/06 04:08:14;;;;;;;4.78;3.83;;;23.60;99.90;;;;;;5026028;28;20053;-54
2024/04/06 04:10:41;;;;;;;7.53;4.22;;;23.60;99.90;;;;;;5020674;28;20030;-54
2024/04/06 04:13:09;;;;;;;6.38;4.18;;;23.60;99.90;;;;;;5015097;28;20386;-54
2024/04/06 04:15:39;;;;;;;8.20;3.53;;;23.60;99.90;;;;;;5013739;28;20108;-54
2024/04/06 04:18:06;;;;;;;5.47;4.18;;;23.60;99.90;;;;;;5027398;28;20014;-55
2024/04/06 04:20:32;;;;;;;6.00;4.18;;;23.60;99.90;;;;;;5032553;28;20052;-54
2024/04/06 04:23:00;;;;;;;4.63;3.63;;;23.60;99.90;;;;;;5032799;28;20347;-55
2024/04/06 04:25:27;;;;;;;;;;;23.60;99.90;;;;;;5033100;28;20030;-54
2024/04/06 04:27:53;;;;;;;7.70;4.30;;;23.60;99.90;;;;;;5031858;28;20246;-55
2024/04/06 04:30:19;;;;;;;5.55;4.32;;;23.60;99.90;;;;;;5031236;28;20060;-54
2024/04/06 04:32:44;;;;;;;5.40;3.65;;;23.60;99.90;;;;;;5032550;28;20022;-54
2024/04/06 04:35:10;;;;;;;8.07;3.92;;;23.50;99.90;;;;;;5032237;28;20029;-54
2024/04/06 04:37:36;;;;;;;6.30;3.60;;;23.60;99.90;;;;;;5032511;28;20531;-54
2024/04/06 04:40:02;;;;;;;4.50;3.70;;;23.60;99.90;;;;;;5032574;28;20033;-54
2024/04/06 04:42:28;;;;;;;5.97;3.78;;;23.50;99.90;;;;;;5032775;28;20557;-54
2024/04/06 04:44:58;;;;;;;7.63;4.03;;;23.50;99.90;;;;;;5032469;28;20157;-54
2024/04/06 04:47:24;;;;;;;6.20;4.00;;;23.50;99.90;;;;;;5032521;28;20427;-54
2024/04/06 04:49:50;;;;;;;5.65;3.90;;;23.50;99.90;;;;;;5032241;28;20094;-54
2024/04/06 04:52:15;;;;;;;4.63;3.83;;;23.50;99.90;;;;;;5032296;28;20059;-54
2024/04/06 04:54:41;;;;;;;5.88;4.00;;;23.50;99.90;;;;;;5032265;28;20100;-55
2024/04/06 04:57:07;;;;;;;5.85;3.60;;;23.50;99.90;;;;;;5032149;28;20021;-54
2024/04/06 04:59:33;;;;;;;6.18;4.18;;;23.50;99.90;;;;;;5032228;28;20038;-54
2024/04/06 05:01:58;;;;;;;5.75;3.95;;;23.50;99.90;;;;;;5030773;28;20076;-55
2024/04/06 05:04:24;;;;;;;4.72;3.30;;;23.50;99.90;;;;;;5030806;28;20107;-54
2024/04/06 05:06:50;;;;;;;5.93;3.65;;;23.50;99.90;;;;;;5030886;28;20418;-54
2024/04/06 05:09:16;;;;;;;4.63;3.47;;;23.50;99.90;;;;;;5032120;28;20060;-54
2024/04/06 05:11:42;;;;;;;5.75;3.38;;;23.50;99.90;;;;;;5032102;28;20453;-55
2024/04/06 05:14:08;;;;;;;5.05;3.17;;;23.50;99.90;;;;;;5032152;28;20048;-55
2024/04/06 05:16:34;;;;;;;5.15;3.55;;;23.50;99.90;;;;;;5031231;28;20033;-54
2024/04/06 05:19:00;;;;;;;4.45;3.53;;;23.50;99.90;;;;;;5032218;28;20049;-54
2024/04/06 05:21:26;;;;;;;4.90;3.47;;;23.50;99.90;;;;;;5032053;28;20037;-55
2024/04/06 05:23:51;;;;;;;7.22;3.33;;;23.40;99.90;;;;;;5032089;28;20022;-55
2024/04/06 05:26:17;;;;;;;8.57;3.10;;;23.50;99.90;;;;;;5031968;28;20036;-55
2024/04/06 05:28:43;;;;;;;8.18;3.70;;;23.40;99.90;;;;;;5032214;28;20025;-55
2024/04/06 05:31:09;;;;;;;5.03;3.40;;;23.50;99.90;;;;;;5031814;28;20499;-55
2024/04/06 05:33:34;;;;;;;6.38;3.70;;;23.40;99.90;;;;;;5031938;28;20028;-57
2024/04/06 05:36:04;;;;;;;5.07;3.78;;;23.40;99.90;;;;;;5031106;28;20544;-56
2024/04/06 05:38:30;;;;;;;5.45;3.30;;;23.40;99.90;;;;;;5032124;28;20014;-56
2024/04/06 05:40:56;;;;;;;6.07;3.47;;;23.40;99.90;;;;;;5031804;28;20021;-56
2024/04/06 05:43:21;;;;;;;5.97;3.38;;;23.40;99.90;;;;;;5031881;28;20461;-55
2024/04/06 05:45:57;;;;;;;9.50;3.97;;;23.40;99.90;;;;;;5031805;28;20470;-55
2024/04/06 05:48:23;;;;;;;5.47;3.30;;;23.40;99.90;;;;;;5034544;28;20028;-55
2024/04/06 05:50:49;;;;;;;7.00;3.58;;;23.40;99.90;;;;;;5035592;28;20358;-55
2024/04/06 05:53:15;;;;;;;5.60;3.15;;;23.40;99.90;;;;;;5035682;28;20075;-56
2024/04/06 05:55:40;;;;;;;6.72;3.50;;;23.40;99.90;;;;;;5035703;28;20033;-56
2024/04/06 05:58:07;;;;;;;4.55;3.33;;;23.40;99.90;;;;;;5035584;28;20022;-56
2024/04/06 06:00:32;;;;;;;6.05;3.38;;;23.40;99.90;;;;;;5035509;28;20021;-56
2024/04/06 06:02:58;;;;;;;5.63;2.88;;;23.40;99.90;;;;;;5035486;28;20033;-56
2024/04/06 06:05:24;;;;;;;6.00;3.13;;;23.40;99.90;;;;;;5035419;28;20076;-56
2024/04/06 06:07:50;;;;;;;4.47;2.85;;;23.30;99.90;;;;;;5035294;28;20078;-55
2024/04/06 06:10:16;;;;;;;4.78;3.33;;;23.30;99.90;;;;;;5017666;28;20013;-55
2024/04/06 06:12:42;;;;;;;5.05;2.90;;;23.30;99.90;;;;;;5033998;28;20503;-55
2024/04/06 06:15:08;;;;;;;4.15;3.30;;;23.30;99.90;;;;;;5035158;28;20493;-56
2024/04/06 06:17:33;;;;;;;4.80;3.17;;;23.30;99.90;;;;;;5035309;28;20025;-55
2024/04/06 06:20:00;;;;;;;5.47;2.85;;;23.30;99.90;;;;;;5035049;28;20033;-56
2024/04/06 06:22:29;;;;;;;5.25;3.40;;;23.30;99.90;;;;;;5035092;28;20543;-55
2024/04/06 06:24:55;;;;;;;5.72;3.03;;;23.30;99.90;;;;;;5034940;28;20025;-55
2024/04/06 06:27:21;;;;;;;5.38;3.25;;;23.30;99.90;;;;;;5034963;28;20029;-55
2024/04/06 06:29:47;;;;;;;5.35;2.83;;;23.30;99.90;;;;;;5034802;28;20026;-56
2024/04/06 06:32:13;;;;;;;4.40;3.05;;;23.30;99.90;;;;;;5034916;28;20108;-55
2024/04/06 06:34:39;;;;;;;4.78;3.13;;;23.30;99.90;;;;;;5033714;28;20018;-55
2024/04/06 06:37:04;;;;;;;5.15;3.22;;;23.30;99.90;;;;;;5035118;28;20035;-55
2024/04/06 06:39:30;;;;;;;5.78;3.72;;;23.30;99.90;;;;;;5034811;28;20080;-55
2024/04/06 06:41:56;;;;;;;6.50;2.85;;;23.30;99.90;;;;;;5050142;28;20060;-56
2024/04/06 06:44:22;;;;;;;5.07;2.53;;;23.30;99.90;;;;;;5034785;28;20028;-56
2024/04/06 06:46:48;;;;;;;5.95;3.13;;;23.30;99.90;;;;;;5034603;28;20116;-56
2024/04/06 06:49:13;;;;;;;5.35;3.67;;;23.30;99.90;;;;;;5034669;28;20029;-56
2024/04/06 06:51:39;;;;;;;4.20;2.95;;;23.30;99.90;;;;;;5034881;28;20029;-56
2024/04/06 06:54:05;;;;;;;6.00;2.65;;;23.30;99.90;;;;;;5035332;28;20025;-55
2024/04/06 06:56:31;;;;;;;6.20;3.00;;;23.30;99.90;;;;;;5034589;28;20026;-55
2024/04/06 06:58:58;;;;;;;4.82;2.40;;;23.30;99.90;;;;;;5032807;28;20018;-55
2024/04/06 07:01:24;;;;;;;5.38;3.22;;;23.30;99.90;;;;;;5034260;28;20124;-55
2024/04/06 07:03:50;;;;;;;4.97;3.22;;;23.30;99.90;;;;;;5034334;28;20112;-55
2024/04/06 07:06:16;;;;;;;4.38;2.97;;;23.30;99.90;;;;;;5033111;28;20508;-55
2024/04/06 07:08:43;;;;;;;5.40;2.85;;;23.30;99.90;;;;;;5034253;28;20026;-55
2024/04/06 07:11:10;;;;;;;5.17;2.97;;;23.30;99.90;;;;;;5034492;28;20022;-55
2024/04/06 07:13:36;;;;;;;5.00;2.63;;;23.30;99.90;;;;;;5034398;28;20020;-55
2024/04/06 07:16:09;;;;;;;5.60;2.85;;;23.30;99.90;;;;;;5034062;28;20370;-56
2024/04/06 07:18:39;;;;;;;4.80;3.08;;;23.30;99.90;;;;;;5032997;28;20025;-55
2024/04/06 07:21:08;;;;;;;6.53;2.70;;;23.30;99.90;;;;;;5033130;28;20108;-56
2024/04/06 07:23:33;;;;;;;3.95;2.58;;;23.30;99.90;;;;;;5034069;28;20030;-56
2024/04/06 07:25:59;;;;;;;4.30;2.72;;;23.30;99.90;;;;;;5033860;28;20112;-56
2024/04/06 07:28:25;;;;;;;4.15;2.75;;;23.30;99.90;;;;;;5034153;28;20021;-56
2024/04/06 07:30:51;;;;;;;5.50;2.85;;;23.30;99.90;;;;;;5033836;28;20028;-56
2024/04/06 07:33:17;;;;;;;6.13;2.85;;;23.30;99.90;;;;;;5033877;28;20048;-56
2024/04/06 07:35:45;;;;;;;4.50;2.92;;;23.30;99.90;;;;;;5033987;28;20032;-56
2024/04/06 07:38:11;;;;;;;4.43;2.53;;;23.30;99.90;;;;;;5032346;28;20033;-56
2024/04/06 07:40:37;;;;;;;5.82;2.95;;;23.30;99.90;;;;;;5033681;28;20474;-55
2024/04/06 07:43:03;;;;;;;4.40;2.65;;;23.30;99.90;;;;;;5033686;28;20030;-56
2024/04/06 07:45:30;;;;;;;5.88;2.80;;;23.30;99.90;;;;;;5033409;28;20108;-55
2024/04/06 07:47:56;;;;;;;6.90;2.97;;;23.30;99.90;;;;;;5033458;28;20539;-54
2024/04/06 07:50:22;;;;;;;6.47;2.90;;;23.30;99.90;;;;;;5033344;28;20251;-54
2024/04/06 07:52:49;;;;;;;4.15;2.80;;;23.30;99.90;;;;;;5033338;28;20055;-54
2024/04/06 07:55:15;;;;;;;6.43;3.05;;;23.30;99.90;;;;;;5033215;28;20033;-55
2024/04/06 07:57:43;;;;;;;3.95;2.67;;;23.30;99.90;;;;;;5033422;28;20374;-55
2024/04/06 08:00:10;;;;;;;4.10;2.78;;;23.30;99.90;;;;;;5033470;28;20068;-55
2024/04/06 08:02:36;;;;;;;6.30;2.97;;;23.30;99.90;;;;;;5032945;28;20132;-55
2024/04/06 08:05:02;;;;;;;6.45;2.55;;;23.30;99.90;;;;;;5032979;28;20548;-55
2024/04/06 08:07:29;;;;;;;11.40;3.33;;;23.30;99.90;;;;;;5033218;28;20045;-55
2024/04/06 08:09:59;;;;;;;5.38;3.55;;;23.30;99.90;;;;;;5032294;28;20029;-55
2024/04/06 08:12:25;;;;;;;5.47;2.55;;;23.30;99.90;;;;;;5031712;28;20025;-55
2024/04/06 08:14:51;;;;;;;6.50;2.85;;;23.30;99.90;;;;;;5032926;28;20025;-55
2024/04/06 08:17:17;;;;;;;5.85;3.42;;;23.30;99.90;;;;;;5031650;28;20535;-55
2024/04/06 08:19:43;;;;;;;8.70;3.30;;;23.30;99.90;;;;;;5033219;28;20022;-56
2024/04/06 08:22:09;;;;;;;7.75;2.85;;;23.30;99.90;;;;;;5032922;28;20116;-55
2024/04/06 08:24:35;;;;;;;8.48;3.72;;;23.30;99.90;;;;;;5031405;28;20017;-56
2024/04/06 08:27:02;;;;;;;7.95;3.97;;;23.30;99.90;;;;;;5032608;28;20032;-55
2024/04/06 08:29:28;;;;;;;8.88;3.10;;;23.30;99.90;;;;;;5032723;28;20018;-54
2024/04/06 08:31:54;;;;;;;7.00;3.25;;;23.30;99.90;;;;;;5032717;28;20033;-55
2024/04/06 08:34:20;;;;;;;7.82;3.78;;;23.30;99.90;;;;;;5032656;28;20045;-55
2024/04/06 08:36:46;;;;;;;7.97;3.20;;;23.30;99.90;;;;;;5032657;28;20528;-55
2024/04/06 08:39:11;;;;;;;7.38;3.08;;;23.30;99.90;;;;;;5032688;28;20026;-55
2024/04/06 08:41:40;;;;;;;7.57;3.33;;;23.30;99.90;;;;;;5032515;28;20069;-56
2024/04/06 08:44:12;;;;;;;9.13;3.45;;;23.30;99.90;;;;;;5031187;28;20389;-55
2024/04/06 08:46:41;;;;;;;7.13;3.53;;;23.40;99.90;;;;;;5032390;28;20040;-55
2024/04/06 08:49:09;;;;;;;6.70;3.38;;;23.40;99.90;;;;;;5032429;28;20025;-55
2024/04/06 08:51:37;;;;;;;8.38;3.53;;;23.30;99.90;;;;;;5032331;28;20026;-56
2024/04/06 08:54:04;;;;;;;8.48;3.28;;;23.30;99.90;;;;;;5032440;28;20385;-56
2024/04/06 08:56:30;;;;;;;9.55;3.25;;;23.40;99.90;;;;;;5032121;28;20599;-55
2024/04/06 08:58:56;;;;;;;7.47;2.88;;;23.30;99.90;;;;;;5032341;28;20100;-55
2024/04/06 09:01:22;;;;;;;9.75;3.70;;;23.40;99.90;;;;;;5032186;28;20045;-56
2024/04/06 09:03:47;;;;;;;6.40;3.25;;;23.40;99.90;;;;;;5032276;28;20511;-56
2024/04/06 09:06:19;;;;;;;9.23;2.88;;;23.40;99.90;;;;;;5032269;28;20029;-57
2024/04/06 09:08:46;;;;;;;9.23;3.67;;;23.40;99.90;;;;;;5032289;28;20025;-57
2024/04/06 09:11:12;;;;;;;6.95;3.65;;;23.40;99.90;;;;;;5030970;28;20091;-57
2024/04/06 09:13:44;;;;;;;6.20;3.47;;;23.40;99.90;;;;;;5032191;28;20048;-56
2024/04/06 09:16:10;;;;;;;7.85;3.17;;;23.40;99.90;;;;;;5032178;28;20029;-57
2024/04/06 09:18:39;;;;;;;7.80;3.42;;;23.40;99.90;;;;;;5032064;28;20022;-56
2024/04/06 09:21:05;;;;;;;6.55;3.28;;;23.40;99.90;;;;;;5032616;28;20032;-56
2024/04/06 09:23:31;;;;;;;8.18;3.67;;;23.50;99.90;;;;;;5036127;28;20094;-56
2024/04/06 09:26:02;;;;;;;7.07;3.45;;;23.40;99.90;;;;;;5035950;28;20451;-56
2024/04/06 09:28:28;;;;;;;7.72;3.60;;;23.40;99.90;;;;;;5036090;28;20026;-56
2024/04/06 09:30:58;;;;;;;8.73;3.08;;;23.40;99.90;;;;;;5036015;28;20025;-56
2024/04/06 09:33:27;;;;;;;6.55;3.20;;;23.50;99.90;;;;;;5035991;28;20113;-55
2024/04/06 09:35:53;;;;;;;9.35;3.20;;;23.50;99.90;;;;;;5035865;28;20026;-56
2024/04/06 09:38:19;;;;;;;10.75;3.85;;;23.50;99.90;;;;;;5034566;28;20022;-55
2024/04/06 09:40:47;;;;;;;12.10;4.43;;;23.50;99.90;;;;;;5034706;28;20029;-55
2024/04/06 09:43:14;;;;;;;11.68;3.45;;;23.50;99.90;;;;;;5035769;28;20022;-57
2024/04/06 09:45:41;;;;;;;9.03;4.17;;;23.50;99.90;;;;;;5035666;28;20056;-56
2024/04/06 09:48:10;;;;;;;8.23;3.17;;;23.50;99.90;;;;;;5035756;28;20021;-56
2024/04/06 09:50:38;;;;;;;8.55;3.72;;;23.50;99.90;;;;;;5035609;28;20048;-56
2024/04/06 09:53:05;;;;;;;;;;;23.50;99.90;;;;;;5036056;28;20354;-56
2024/04/06 09:55:32;;;;;;;9.40;4.10;;;23.50;99.90;;;;;;5034203;28;19916;-56
2024/04/06 09:57:58;;;;;;;6.35;3.85;;;23.60;99.90;;;;;;5035764;28;20036;-57
2024/04/06 10:00:24;;;;;;;10.70;5.05;;;23.60;99.90;;;;;;5035504;28;20033;-56
2024/04/06 10:02:51;;;;;;;6.07;3.28;;;23.60;99.90;;;;;;5035330;28;20136;-56
2024/04/06 10:05:17;;;;;;;9.20;4.28;;;23.60;99.90;;;;;;5035545;28;20121;-56
2024/04/06 10:07:49;;;;;;;8.35;3.45;;;23.60;99.90;;;;;;5035455;28;20180;-56
2024/04/06 10:10:17;;;;;;;9.38;3.75;;;23.60;99.90;;;;;;5035201;28;20030;-57
2024/04/06 10:12:47;;;;;;;6.97;3.88;;;23.60;99.90;;;;;;5033861;28;20022;-56
2024/04/06 10:15:14;;;;;;;9.43;4.10;;;23.60;99.90;;;;;;5035066;28;20362;-56
2024/04/06 10:17:46;;;;;;;9.73;3.78;;;23.70;99.90;;;;;;5033924;28;20022;-56
2024/04/06 10:20:13;;;;;;;9.15;3.88;;;23.60;99.90;;;;;;5035036;28;20083;-56
2024/04/06 10:22:59;;;;;;;8.70;3.97;;;23.70;99.90;;;;;;5034998;28;20017;-56
2024/04/06 10:25:34;;;;;;;10.13;4.30;;;23.70;99.90;;;;;;5034849;28;20034;-57
2024/04/06 10:28:02;;;;;;;14.18;3.80;;;23.70;99.90;;;;;;5034922;28;20029;-56
2024/04/06 10:30:28;;;;;;;7.72;4.05;;;23.70;99.90;;;;;;5035127;28;20480;-57
2024/04/06 10:32:54;;;;;;;7.25;4.22;;;23.70;99.90;;;;;;5034055;28;20025;-56
2024/04/06 10:35:20;;;;;;;12.93;4.93;;;23.70;99.90;;;;;;5035044;28;20509;-57
2024/04/06 10:37:49;;;;;;;9.85;4.45;;;23.70;99.90;;;;;;5034597;28;20476;-56
2024/04/06 10:40:15;;;;;;;9.18;4.28;;;23.70;99.90;;;;;;5034652;28;20072;-56
2024/04/06 10:42:42;;;;;;;12.40;4.78;;;23.70;99.90;;;;;;5034636;28;20555;-56
2024/04/06 10:45:11;;;;;;;7.22;3.88;;;23.70;99.90;;;;;;5034533;28;20116;-56
2024/04/06 10:47:40;;;;;;;11.35;4.65;;;23.70;99.90;;;;;;5033306;28;20029;-56
2024/04/06 10:50:08;;;;;;;9.57;4.13;;;23.80;99.90;;;;;;5032989;28;20032;-55
2024/04/06 10:52:38;;;;;;;14.18;4.68;;;23.80;99.90;;;;;;5034423;28;20117;-56
2024/04/06 10:55:10;;;;;;;14.38;5.70;;;23.80;99.90;;;;;;5034482;28;20030;-55
2024/04/06 10:57:38;;;;;;;10.30;5.28;;;23.80;99.90;;;;;;5034403;28;20076;-56
2024/04/06 11:00:08;;;;;;;13.60;4.90;;;23.80;99.90;;;;;;5034213;28;20032;-56
2024/04/06 11:02:39;;;;;;;12.48;4.82;;;23.70;99.90;;;;;;5034036;28;20056;-55
2024/04/06 11:05:11;;;;;;;8.88;5.03;;;23.70;99.90;;;;;;5034061;28;20034;-55
2024/04/06 11:07:41;;;;;;;15.95;4.32;;;23.70;99.90;;;;;;5033371;28;20385;-57
2024/04/06 11:10:11;;;;;;;9.02;4.32;;;23.80;99.90;;;;;;5034219;28;20025;-56
2024/04/06 11:12:38;;;;;;;11.93;5.00;;;23.80;99.90;;;;;;5034133;28;20419;-56
2024/04/06 11:15:07;;;;;;;10.13;4.45;;;23.80;99.90;;;;;;5033941;28;20029;-56
2024/04/06 11:17:33;;;;;;;8.18;4.10;;;23.80;99.90;;;;;;5033774;28;20076;-57
2024/04/06 11:20:03;;;;;;;9.75;4.97;;;23.80;99.90;;;;;;5033977;28;20053;-57
2024/04/06 11:22:29;;;;;;;10.55;4.60;;;23.80;99.90;;;;;;5032703;28;20025;-57
2024/04/06 11:24:58;;;;;;;14.20;5.90;;;23.80;99.90;;;;;;5033895;28;20034;-57
2024/04/06 11:27:26;;;;;;;9.07;4.30;;;23.80;99.90;;;;;;5033959;28;20037;-57
2024/04/06 11:29:52;;;;;;;10.25;4.63;;;23.80;99.90;;;;;;5034004;28;20040;-56
2024/04/06 11:32:19;;;;;;;11.82;5.22;;;23.80;99.90;;;;;;5033810;28;20033;-56
2024/04/06 11:34:46;;;;;;;8.63;4.25;;;23.80;99.90;;;;;;5033890;28;20013;-55
2024/04/06 11:37:12;;;;;;;11.18;5.45;;;23.80;99.90;;;;;;5032356;28;20030;-56
2024/04/06 11:39:38;;;;;;;13.02;4.78;;;23.80;99.90;;;;;;5033769;28;20023;-56
2024/04/06 11:42:04;;;;;;;13.60;4.28;;;23.80;99.90;;;;;;5033631;28;20064;-56
2024/04/06 11:44:30;;;;;;;9.02;5.00;;;23.80;99.90;;;;;;5032519;28;20060;-56
2024/04/06 11:46:55;;;;;;;10.60;5.53;;;23.80;99.90;;;;;;5033462;28;20029;-56
2024/04/06 11:49:22;;;;;;;11.82;4.38;;;23.80;99.90;;;;;;5033416;28;20025;-56
2024/04/06 11:51:48;;;;;;;12.68;4.72;;;23.80;99.90;;;;;;5033362;28;20033;-56
2024/04/06 11:54:14;;;;;;;12.93;5.05;;;23.80;99.90;;;;;;5033235;28;20036;-57
2024/04/06 11:56:40;;;;;;;13.10;5.65;;;23.80;99.90;;;;;;5033120;28;20108;-56
2024/04/06 11:59:07;;;;;;;17.52;5.10;;;23.80;99.90;;;;;;5033182;28;20021;-56
2024/04/06 12:01:33;;;;;;;13.32;5.30;;;23.80;99.90;;;;;;5032955;28;20064;-56
2024/04/06 12:03:59;;;;;;;13.98;5.25;;;23.80;99.90;;;;;;5033130;28;20013;-56
2024/04/06 12:06:25;;;;;;;12.90;4.82;;;23.80;99.90;;;;;;5033175;28;20048;-56
2024/04/06 12:08:53;;;;;;;12.75;5.38;;;23.80;99.90;;;;;;5031673;28;20021;-56
2024/04/06 12:11:19;;;;;;;11.98;5.47;;;23.80;99.90;;;;;;5033048;28;20037;-56
2024/04/06 12:13:45;;;;;;;9.23;5.32;;;23.80;99.90;;;;;;5032901;28;20071;-56
2024/04/06 12:16:11;;;;;;;16.35;5.78;;;23.90;99.90;;;;;;5031691;28;20033;-56
2024/04/06 12:18:37;;;;;;;15.68;5.65;;;23.90;99.90;;;;;;5032782;28;20025;-56
2024/04/06 12:21:04;;;;;;;11.57;5.18;;;23.90;99.90;;;;;;5032821;28;20025;-56
2024/04/06 12:23:29;;;;;;;13.50;5.85;;;23.90;99.90;;;;;;5032874;28;20026;-56
2024/04/06 12:25:56;;;;;;;11.68;5.32;;;23.80;99.90;;;;;;5033002;28;20033;-55
2024/04/06 12:28:22;;;;;;;14.07;5.22;;;23.90;99.90;;;;;;5032946;28;20108;-56
2024/04/06 12:30:48;;;;;;;13.93;5.35;;;23.80;99.90;;;;;;5032862;28;20052;-56
2024/04/06 12:33:13;;;;;;;14.57;5.25;;;23.90;99.90;;;;;;5032794;28;20060;-56
2024/04/06 12:35:42;;;;;;;10.95;5.28;;;23.90;99.90;;;;;;5032833;28;20033;-56
2024/04/06 12:38:09;;;;;;;12.60;5.28;;;23.90;99.90;;;;;;5031498;28;20388;-56
2024/04/06 12:40:34;;;;;;;9.18;5.32;;;23.90;99.90;;;;;;5032737;28;20025;-56
2024/04/06 12:43:00;;;;;;;14.30;5.72;;;23.90;99.90;;;;;;5032754;28;20033;-56
2024/04/06 12:45:27;;;;;;;12.68;4.80;;;23.90;99.90;;;;;;5032785;28;20473;-57